Sandvig, Denmark
Current Conditions -  °F | °C
As of 9:50 AM on Friday 31 Oct 2014 (Local Time) from EKRN Reporting Station
Broken Clouds Broken Clouds  
Wind Chill: 50°   Ceiling: 5200
Heat Index: 50°   Visibility: 4mi
Dew Point: 46°   Wind: 14mph
Humidity: 87%   Direction: 180°S
Pressure: 30.27"   Gusts: NA
Location:  55.28°N, 14.78°E
Report Text: EKRN 310850Z AUTO 18012KT 6000NDV FEW013/// BKN052///10/08 Q1025
Loading
Personal Weather Stations






























Interactive Weather Map
Tropical Storm Tracking
New forecast layout! Learn more

10-Day Weather Forecast

Advertisements
Track Severe Weather on mobile